createdAt,value
2023-02-22T00:02:29.365Z,90.63
2023-02-22T00:04:56.695Z,90.57
2023-02-22T00:07:24.067Z,90.89
2023-02-22T00:09:51.416Z,90.66
2023-02-22T00:12:18.878Z,91.02
2023-02-22T00:14:46.230Z,90.79
2023-02-22T00:17:13.873Z,91.17
2023-02-22T00:19:41.183Z,90.80
2023-02-22T00:22:08.586Z,91.11
2023-02-22T00:24:36.413Z,91.22
2023-02-22T00:27:03.895Z,90.78
2023-02-22T00:29:31.221Z,91.10
2023-02-22T00:31:58.641Z,91.21
2023-02-22T00:34:27.026Z,91.51
2023-02-22T00:36:54.283Z,91.57
2023-02-22T00:39:21.651Z,91.44
2023-02-22T00:41:50.055Z,91.84
2023-02-22T00:44:17.345Z,91.79
2023-02-22T00:46:45.628Z,91.96
2023-02-22T00:49:13.162Z,92.21
2023-02-22T00:51:40.433Z,91.86
2023-02-22T00:54:08.269Z,92.08
2023-02-22T00:56:35.644Z,92.22
2023-02-22T00:59:03.669Z,92.12
2023-02-22T01:01:32.216Z,92.25
2023-02-22T01:03:59.514Z,92.04
2023-02-22T01:06:26.923Z,92.12
2023-02-22T01:08:54.062Z,92.27
2023-02-22T01:11:22.594Z,92.25
2023-02-22T01:13:50.022Z,92.81
2023-02-22T01:16:17.452Z,92.59
2023-02-22T01:18:44.749Z,92.74
2023-02-22T01:21:12.353Z,92.65
2023-02-22T01:23:41.644Z,92.86
2023-02-22T01:26:09.002Z,92.60
2023-02-22T01:28:38.100Z,92.76
2023-02-22T01:31:06.540Z,92.84
2023-02-22T01:33:34.293Z,92.90
2023-02-22T01:36:01.427Z,92.68
2023-02-22T01:38:28.841Z,92.79
2023-02-22T01:40:56.065Z,93.39
2023-02-22T01:43:31.245Z,93.53
2023-02-22T01:46:22.172Z,93.54
2023-02-22T01:49:00.513Z,94.04
2023-02-22T01:51:32.272Z,93.71
2023-02-22T01:54:06.343Z,93.94
2023-02-22T01:56:38.434Z,93.88
2023-02-22T01:59:10.068Z,93.69
2023-02-22T02:01:43.429Z,93.69
2023-02-22T02:04:16.452Z,93.83
2023-02-22T02:06:45.292Z,93.85
2023-02-22T02:09:37.029Z,93.21
2023-02-22T02:12:06.683Z,93.11
2023-02-22T02:14:34.336Z,93.40
2023-02-22T02:17:02.262Z,93.40
2023-02-22T02:19:57.111Z,93.27
2023-02-22T02:22:38.750Z,93.36
2023-02-22T02:25:47.417Z,92.85
2023-02-22T02:28:26.926Z,93.35
2023-02-22T02:31:21.656Z,92.98
2023-02-22T02:33:58.839Z,93.41
2023-02-22T02:36:41.889Z,93.62
2023-02-22T02:39:16.632Z,93.60
2023-02-22T02:41:49.594Z,93.57
2023-02-22T02:44:28.491Z,93.48
2023-02-22T02:47:04.551Z,93.69
2023-02-22T02:49:40.316Z,93.34
2023-02-22T02:52:10.518Z,93.42
2023-02-22T02:54:39.082Z,93.02
2023-02-22T02:57:06.986Z,93.66
2023-02-22T02:59:37.680Z,93.19
2023-02-22T03:02:40.010Z,93.22
2023-02-22T03:05:55.562Z,93.28
2023-02-22T03:08:29.020Z,92.75
2023-02-22T03:11:15.557Z,92.97
2023-02-22T03:14:16.673Z,91.77
2023-02-22T03:16:50.543Z,92.49
2023-02-22T03:19:38.922Z,92.60
2023-02-22T03:22:11.600Z,92.52
2023-02-22T03:25:08.188Z,91.69
2023-02-22T03:27:43.930Z,91.73
2023-02-22T03:30:24.261Z,92.05
2023-02-22T03:33:02.356Z,91.80
2023-02-22T03:35:35.933Z,92.02
2023-02-22T03:38:10.138Z,91.93
2023-02-22T03:40:43.619Z,92.29
2023-02-22T03:43:17.165Z,91.82
2023-02-22T03:45:49.212Z,91.67
2023-02-22T03:48:36.908Z,91.69
2023-02-22T03:51:06.863Z,92.08
2023-02-22T03:53:37.408Z,91.80
2023-02-22T03:56:10.614Z,91.28
2023-02-22T03:58:40.923Z,91.54
2023-02-22T04:01:08.066Z,91.34
2023-02-22T04:03:35.276Z,91.32
2023-02-22T04:06:06.562Z,91.00
2023-02-22T04:08:34.810Z,91.12
2023-02-22T04:11:02.751Z,91.16
2023-02-22T04:13:31.530Z,90.92
2023-02-22T04:15:59.952Z,91.30
2023-02-22T04:18:27.630Z,91.13
2023-02-22T04:20:54.879Z,90.82
2023-02-22T04:23:35.896Z,90.82
2023-02-22T04:26:03.872Z,91.35
2023-02-22T04:28:31.428Z,90.89
2023-02-22T04:31:17.406Z,90.72
2023-02-22T04:33:45.346Z,91.37
2023-02-22T04:36:16.402Z,90.84
2023-02-22T04:38:45.068Z,90.65
2023-02-22T04:41:12.933Z,90.45
2023-02-22T04:43:40.575Z,90.97
2023-02-22T04:46:34.332Z,90.75
2023-02-22T04:49:02.746Z,90.99
2023-02-22T04:51:33.166Z,91.24
2023-02-22T04:54:03.062Z,90.86
2023-02-22T04:56:32.510Z,90.89
2023-02-22T04:59:00.055Z,90.59
2023-02-22T05:01:32.059Z,90.71
2023-02-22T05:03:59.551Z,90.66
2023-02-22T05:06:26.804Z,90.92
2023-02-22T05:08:54.044Z,91.06
2023-02-22T05:11:22.248Z,90.95
2023-02-22T05:13:49.514Z,90.57
2023-02-22T05:16:17.213Z,90.50
2023-02-22T05:18:44.470Z,90.92
2023-02-22T05:21:11.646Z,90.95
2023-02-22T05:23:38.982Z,90.99
2023-02-22T05:26:09.475Z,91.26
2023-02-22T05:28:37.933Z,90.74
2023-02-22T05:31:05.351Z,91.24
2023-02-22T05:33:32.840Z,91.20
2023-02-22T05:36:00.150Z,90.71
2023-02-22T05:38:27.437Z,90.94
2023-02-22T05:40:54.625Z,90.88
2023-02-22T05:43:22.209Z,91.05
2023-02-22T05:45:49.512Z,90.50
2023-02-22T05:48:16.868Z,90.26
2023-02-22T05:50:44.305Z,90.19
2023-02-22T05:53:11.685Z,90.10
2023-02-22T05:55:38.888Z,90.55
2023-02-22T05:58:06.423Z,90.41
2023-02-22T06:00:33.853Z,90.26
2023-02-22T06:03:07.448Z,90.22
2023-02-22T06:05:34.826Z,89.82
2023-02-22T06:08:03.563Z,90.35
2023-02-22T06:10:31.224Z,90.09
2023-02-22T06:12:59.487Z,89.47
2023-02-22T06:15:28.628Z,89.28
2023-02-22T06:17:56.907Z,89.31
2023-02-22T06:20:26.939Z,89.10
2023-02-22T06:22:56.165Z,88.44
2023-02-22T06:25:26.199Z,88.17
2023-02-22T06:27:53.537Z,87.70
2023-02-22T06:30:22.807Z,87.32
2023-02-22T06:32:50.384Z,86.54
2023-02-22T06:35:17.752Z,85.95
2023-02-22T06:37:45.188Z,84.67
2023-02-22T06:40:13.501Z,84.07
2023-02-22T06:42:40.805Z,84.04
2023-02-22T06:45:09.437Z,82.88
2023-02-22T06:47:41.669Z,81.81
2023-02-22T06:50:34.889Z,81.63
2023-02-22T06:53:03.080Z,81.83
2023-02-22T06:55:32.332Z,81.26
2023-02-22T06:58:00.764Z,81.58
2023-02-22T07:00:30.176Z,81.73
2023-02-22T07:02:58.590Z,82.39
2023-02-22T07:05:27.561Z,82.04
2023-02-22T07:08:02.620Z,82.03
2023-02-22T07:10:32.273Z,81.63
2023-02-22T07:12:59.786Z,81.78
2023-02-22T07:15:30.101Z,81.26
2023-02-22T07:17:57.562Z,80.83
2023-02-22T07:20:27.395Z,81.09
2023-02-22T07:22:55.230Z,79.84
2023-02-22T07:25:24.335Z,78.74
2023-02-22T07:27:52.729Z,77.94
2023-02-22T07:30:25.913Z,77.16
2023-02-22T07:32:55.654Z,76.11
2023-02-22T07:35:37.479Z,75.97
2023-02-22T07:38:08.375Z,75.52
2023-02-22T07:40:37.438Z,74.97
2023-02-22T07:43:14.692Z,74.99
2023-02-22T07:45:41.990Z,74.02
2023-02-22T07:48:09.664Z,73.77
2023-02-22T07:50:37.279Z,73.71
2023-02-22T07:53:07.704Z,73.27
2023-02-22T07:55:35.538Z,73.45
2023-02-22T07:58:05.776Z,72.25
2023-02-22T08:05:15.679Z,72.01
2023-02-22T08:08:21.898Z,71.94
2023-02-22T08:15:58.747Z,70.69
2023-02-22T08:19:08.941Z,69.70
2023-02-22T08:22:02.934Z,70.44
2023-02-22T08:25:06.509Z,69.96
2023-02-22T08:28:28.821Z,68.61
2023-02-22T08:34:58.979Z,67.33
2023-02-22T08:38:14.461Z,68.12
2023-02-22T08:41:25.802Z,67.09
2023-02-22T08:44:34.382Z,67.29
2023-02-22T09:00:51.193Z,65.88
2023-02-22T09:09:01.373Z,65.65
2023-02-22T10:00:07.768Z,62.58
2023-02-22T10:12:03.355Z,62.13
2023-02-22T10:14:46.137Z,61.29
2023-02-22T11:31:27.687Z,59.92
2023-02-22T11:35:08.656Z,60.52
2023-02-22T11:39:00.054Z,59.55
2023-02-22T11:42:41.731Z,59.60
2023-02-22T11:54:06.315Z,59.08
2023-02-22T12:10:50.170Z,57.26
2023-02-22T12:14:53.159Z,57.24
2023-02-22T12:18:24.634Z,57.49
2023-02-22T12:21:37.874Z,57.00
2023-02-22T12:25:32.496Z,56.20
2023-02-22T12:28:48.594Z,56.56
2023-02-22T12:40:43.059Z,57.45
2023-02-22T12:53:00.040Z,58.48
2023-02-22T13:05:28.104Z,59.23
2023-02-22T13:08:44.279Z,59.01
2023-02-22T13:33:08.781Z,58.06
2023-02-22T13:40:25.968Z,57.17
2023-02-22T14:05:05.592Z,56.95
2023-02-22T14:12:22.430Z,57.13
2023-02-22T14:20:00.111Z,56.96
2023-02-22T14:27:52.557Z,57.00
2023-02-22T14:50:59.433Z,58.66
2023-02-22T15:54:42.221Z,60.63
2023-02-22T16:05:44.838Z,62.03
2023-02-22T16:12:57.454Z,62.80
2023-02-22T16:16:18.260Z,62.62
2023-02-22T16:19:34.802Z,62.67
2023-02-22T16:22:54.494Z,63.29
2023-02-22T16:26:05.602Z,63.18
2023-02-22T16:32:39.492Z,63.97
2023-02-22T16:36:03.308Z,64.60
2023-02-22T17:08:10.158Z,67.05
2023-02-22T17:47:19.316Z,66.53
2023-02-22T17:50:32.113Z,66.69
2023-02-22T17:57:21.766Z,66.69
2023-02-22T18:00:53.663Z,66.58
2023-02-22T18:12:56.187Z,66.74
2023-02-22T18:37:52.176Z,67.77
2023-02-22T18:58:32.625Z,68.46
2023-02-22T19:28:03.899Z,69.67
2023-02-22T19:57:07.353Z,70.41
2023-02-22T20:04:17.076Z,70.74
2023-02-22T20:23:18.649Z,71.89
2023-02-22T20:38:38.081Z,72.92
2023-02-22T20:41:37.017Z,73.20
2023-02-22T20:47:43.572Z,73.25
2023-02-22T20:50:26.824Z,73.24
2023-02-22T20:53:28.198Z,73.02
2023-02-22T20:56:25.674Z,73.62
2023-02-22T20:59:00.301Z,73.47
2023-02-22T21:01:28.239Z,73.37
2023-02-22T21:04:09.075Z,73.45
2023-02-22T21:07:43.838Z,73.91
2023-02-22T21:36:11.537Z,74.84
2023-02-22T21:43:16.992Z,75.39
2023-02-22T21:58:40.573Z,75.61
2023-02-22T22:15:09.574Z,76.58
2023-02-22T22:32:08.003Z,76.84
2023-02-22T22:48:55.977Z,76.98
2023-02-22T22:52:11.211Z,76.95
2023-02-22T23:04:37.248Z,77.58
2023-02-22T23:07:16.343Z,77.41
2023-02-22T23:10:21.369Z,77.35
2023-02-22T23:13:04.656Z,77.78
2023-02-22T23:15:34.956Z,77.59
2023-02-22T23:18:22.408Z,77.43
2023-02-22T23:21:32.441Z,77.47
2023-02-22T23:24:24.968Z,77.27
2023-02-22T23:27:06.105Z,77.76
2023-02-22T23:30:09.547Z,77.88
2023-02-22T23:34:09.462Z,78.01
2023-02-22T23:41:18.952Z,77.92
2023-02-22T23:44:14.087Z,77.88
2023-02-22T23:47:34.042Z,77.78
2023-02-22T23:50:21.435Z,78.17
2023-02-22T23:53:10.939Z,78.14
